Time,TemperatureF,DewpointF,PressureIn,WindDirection,WindDirectionDegrees,WindSpeedMPH,WindSpeedGustMPH,Humidity,HourlyPrecipIn,Conditions,Clouds,dailyrainin,SoftwareType,DateUTC
2013-06-17 00:00:00,63.7,45.2,29.97,NW,323,0.0,0.0,51,0.00,,SKC,0.00,VWS V14.01,2013-06-17 04:00:00,
2013-06-17 00:20:00,63.3,46.4,29.97,NW,323,0.0,0.0,54,0.00,,SKC,0.00,VWS V14.01,2013-06-17 04:20:00,
2013-06-17 00:40:00,63.1,48.1,29.94,NW,323,0.0,0.0,58,0.00,,SKC,0.00,VWS V14.01,2013-06-17 04:40:00,
2013-06-17 01:00:00,63.1,49.9,29.94,NW,323,0.0,0.0,62,0.00,,SKC,0.00,VWS V14.01,2013-06-17 05:00:00,
2013-06-17 01:20:00,63.1,51.6,29.94,NW,323,0.0,0.0,66,0.00,,SKC,0.00,VWS V14.01,2013-06-17 05:20:00,
2013-06-17 01:40:00,63.1,52.4,29.94,NW,323,0.0,0.0,68,0.00,,SKC,0.00,VWS V14.01,2013-06-17 05:40:00,
2013-06-17 02:00:00,63.1,53.2,29.94,NW,323,0.0,0.0,70,0.00,,SKC,0.00,VWS V14.01,2013-06-17 06:00:00,
2013-06-17 02:20:00,63.1,54.0,29.94,NW,323,0.0,0.0,72,0.00,,SKC,0.00,VWS V14.01,2013-06-17 06:20:00,
2013-06-17 02:40:00,63.1,54.3,29.94,NW,323,0.0,0.0,73,0.00,,SKC,0.00,VWS V14.01,2013-06-17 06:40:00,
2013-06-17 03:00:00,63.3,55.3,29.94,NW,323,0.0,0.0,75,0.00,,SKC,0.00,VWS V14.01,2013-06-17 07:00:00,
2013-06-17 03:20:00,63.1,55.5,29.94,NW,323,0.0,0.0,76,0.00,,SKC,0.00,VWS V14.01,2013-06-17 07:20:00,
2013-06-17 03:40:00,63.3,56.3,29.94,NW,323,0.0,0.0,78,0.00,,SKC,0.00,VWS V14.01,2013-06-17 07:40:00,
2013-06-17 04:00:00,63.3,56.3,29.94,NW,323,0.0,0.0,78,0.00,,SKC,0.00,VWS V14.01,2013-06-17 08:00:00,
2013-06-17 04:20:00,63.5,57.9,29.94,West,277,5.8,7.6,82,0.00,,SKC,0.00,VWS V14.01,2013-06-17 08:20:00,
2013-06-17 04:40:00,63.9,58.3,29.94,WNW,289,0.0,8.1,82,0.00,,SKC,0.00,VWS V14.01,2013-06-17 08:40:00,
2013-06-17 05:00:00,63.5,58.2,29.94,WNW,288,0.0,4.0,83,0.00,,SKC,0.00,VWS V14.01,2013-06-17 09:00:00,
2013-06-17 05:20:00,63.3,58.1,29.94,WNW,288,0.0,0.0,83,0.00,,SKC,0.00,VWS V14.01,2013-06-17 09:20:00,
2013-06-17 05:40:00,63.1,57.9,29.91,WNW,288,0.0,0.0,83,0.00,,SKC,0.00,VWS V14.01,2013-06-17 09:40:00,
2013-06-17 06:00:00,62.8,57.5,29.91,WNW,288,0.0,0.0,83,0.00,,SKC,0.00,VWS V14.01,2013-06-17 10:00:00,
2013-06-17 06:20:00,62.2,57.0,29.91,WNW,288,0.0,0.0,83,0.00,,SKC,0.00,VWS V14.01,2013-06-17 10:20:00,
2013-06-17 06:40:00,61.9,57.0,29.91,WNW,288,0.0,0.0,84,0.00,,SKC,0.00,VWS V14.01,2013-06-17 10:40:00,
2013-06-17 07:00:00,62.2,58.0,29.94,WNW,288,0.0,0.0,86,0.00,,SKC,0.00,VWS V14.01,2013-06-17 11:00:00,
2013-06-17 07:20:00,62.4,58.2,29.94,WNW,288,0.0,0.0,86,0.00,,SKC,0.00,VWS V14.01,2013-06-17 11:20:00,
2013-06-17 07:40:00,62.8,58.5,29.94,WNW,288,0.0,0.0,86,0.00,,SKC,0.00,VWS V14.01,2013-06-17 11:40:00,
2013-06-17 08:00:00,63.0,58.7,29.94,WNW,288,0.0,0.0,86,0.00,,SKC,0.00,VWS V14.01,2013-06-17 12:00:00,
2013-06-17 08:20:00,63.1,59.2,29.94,WNW,288,0.0,0.0,87,0.00,,SKC,0.00,VWS V14.01,2013-06-17 12:20:00,
2013-06-17 08:40:00,63.5,59.6,29.94,WNW,288,0.0,0.0,87,0.00,,SKC,0.00,VWS V14.01,2013-06-17 12:40:00,
2013-06-17 09:00:00,64.0,60.4,29.94,WNW,288,0.0,0.0,88,0.00,,SKC,0.00,VWS V14.01,2013-06-17 13:00:00,
2013-06-17 09:20:00,64.6,61.0,29.94,WNW,288,0.0,0.0,88,0.00,,SKC,0.00,VWS V14.01,2013-06-17 13:20:00,
2013-06-17 09:40:00,64.8,61.1,29.94,WNW,288,0.0,0.0,88,0.00,,SKC,0.00,VWS V14.01,2013-06-17 13:40:00,
2013-06-17 10:00:00,65.3,61.7,29.91,WNW,288,0.0,0.0,88,0.00,,SKC,0.00,VWS V14.01,2013-06-17 14:00:00,
2013-06-17 10:20:00,66.0,63.0,29.91,WNW,288,0.0,0.0,90,0.00,,SKC,0.00,VWS V14.01,2013-06-17 14:20:00,
2013-06-17 10:40:00,67.1,64.1,29.91,West,268,0.0,0.0,90,0.00,,SKC,0.00,VWS V14.01,2013-06-17 14:40:00,
2013-06-17 11:00:00,71.1,67.3,29.91,NNW,342,0.0,2.7,88,0.00,,SKC,0.00,VWS V14.01,2013-06-17 15:00:00,
2013-06-17 11:20:00,72.7,53.5,29.91,West,262,0.0,0.0,51,0.00,,SKC,0.00,VWS V14.01,2013-06-17 15:20:00,
2013-06-17 11:40:00,73.2,51.2,29.91,NNW,346,0.0,0.0,46,0.00,,SKC,0.00,VWS V14.01,2013-06-17 15:40:00,
2013-06-17 12:00:00,74.7,43.7,29.94,NW,310,0.0,0.0,33,0.00,,SKC,0.00,VWS V14.01,2013-06-17 16:00:00,
2013-06-17 12:20:00,73.6,41.9,29.94,WNW,299,0.0,0.0,32,0.00,,SKC,0.00,VWS V14.01,2013-06-17 16:20:00,
2013-06-17 12:40:00,74.3,39.1,29.94,West,268,0.0,0.0,28,0.00,,SKC,0.00,VWS V14.01,2013-06-17 16:40:00,
2013-06-17 13:00:00,76.6,33.8,29.94,NNW,332,0.0,2.7,21,0.00,,SKC,0.00,VWS V14.01,2013-06-17 17:00:00,
2013-06-17 13:20:00,76.5,34.8,29.91,WNW,293,0.0,0.0,22,0.00,,SKC,0.00,VWS V14.01,2013-06-17 17:20:00,
2013-06-17 13:40:00,76.8,34.0,29.91,SSW,205,0.0,0.0,21,0.00,,SKC,0.00,VWS V14.01,2013-06-17 17:40:00,
2013-06-17 14:00:00,76.3,32.3,29.91,NW,324,0.0,0.0,20,0.00,,SKC,0.00,VWS V14.01,2013-06-17 18:00:00,
2013-06-17 14:20:00,75.6,34.1,29.91,NNW,344,0.0,0.0,22,0.00,,SKC,0.00,VWS V14.01,2013-06-17 18:20:00,
2013-06-17 14:40:00,75.7,29.3,29.91,NW,318,0.0,0.0,18,0.00,,SKC,0.00,VWS V14.01,2013-06-17 18:40:00,
2013-06-17 15:00:00,75.0,32.5,29.91,WNW,288,0.0,0.0,21,0.00,,SKC,0.00,VWS V14.01,2013-06-17 19:00:00,
2013-06-17 15:20:00,72.9,34.0,29.91,WNW,288,0.0,0.0,24,0.00,,SKC,0.00,VWS V14.01,2013-06-17 19:20:00,
2013-06-17 15:40:00,74.5,37.4,29.91,WNW,288,0.0,0.0,26,0.00,,SKC,0.00,VWS V14.01,2013-06-17 19:40:00,
2013-06-17 16:00:00,74.1,36.1,29.88,East,96,0.0,0.0,25,0.00,,SKC,0.00,VWS V14.01,2013-06-17 20:00:00,
2013-06-17 16:20:00,73.8,35.8,29.88,WNW,285,0.0,0.0,25,0.00,,SKC,0.00,VWS V14.01,2013-06-17 20:20:00,
2013-06-17 16:40:00,75.4,36.1,29.88,ESE,108,0.0,0.0,24,0.00,,SKC,0.00,VWS V14.01,2013-06-17 20:40:00,
2013-06-17 17:00:00,74.5,36.4,29.85,SE,125,0.0,0.0,25,0.00,,SKC,0.00,VWS V14.01,2013-06-17 21:00:00,
2013-06-17 17:20:00,72.0,41.3,29.88,ENE,71,0.0,0.0,33,0.00,,SKC,0.00,VWS V14.01,2013-06-17 21:20:00,
2013-06-17 17:40:00,72.1,41.5,29.88,East,100,0.0,0.0,33,0.00,,SKC,0.00,VWS V14.01,2013-06-17 21:40:00,
2013-06-17 18:00:00,71.6,40.2,29.88,East,83,0.0,0.0,32,0.00,,SKC,0.00,VWS V14.01,2013-06-17 22:00:00,
2013-06-17 18:20:00,70.9,41.9,29.88,NE,48,0.0,0.0,35,0.00,,SKC,0.00,VWS V14.01,2013-06-17 22:20:00,
2013-06-17 18:40:00,70.9,41.9,29.88,East,85,0.0,0.0,35,0.00,,SKC,0.00,VWS V14.01,2013-06-17 22:40:00,
2013-06-17 19:00:00,70.5,41.6,29.88,East,99,0.0,0.0,35,0.00,,SKC,0.00,VWS V14.01,2013-06-17 23:00:00,
2013-06-17 19:20:00,70.2,42.7,29.88,East,99,0.0,0.0,37,0.00,,SKC,0.00,VWS V14.01,2013-06-17 23:20:00,
2013-06-17 19:40:00,69.6,43.6,29.88,East,99,0.0,0.0,39,0.00,,SKC,0.00,VWS V14.01,2013-06-17 23:40:00,
2013-06-17 20:00:00,69.3,45.2,29.88,East,99,0.0,0.0,42,0.00,,SKC,0.00,VWS V14.01,2013-06-18 00:00:00,
2013-06-17 20:20:00,68.9,46.1,29.88,East,99,0.0,0.0,44,0.00,,SKC,0.00,VWS V14.01,2013-06-18 00:20:00,
2013-06-17 20:40:00,68.5,47.0,29.88,East,99,0.0,0.0,46,0.00,,SKC,0.00,VWS V14.01,2013-06-18 00:40:00,
2013-06-17 21:00:00,68.4,47.9,29.88,East,99,0.0,0.0,48,0.00,,SKC,0.00,VWS V14.01,2013-06-18 01:00:00,
2013-06-17 21:20:00,67.8,49.0,29.88,East,99,0.0,0.0,51,0.00,,SKC,0.00,VWS V14.01,2013-06-18 01:20:00,
2013-06-17 21:40:00,67.5,49.2,29.88,East,99,0.0,0.0,52,0.00,,SKC,0.00,VWS V14.01,2013-06-18 01:40:00,
2013-06-17 22:00:00,66.9,51.2,29.88,East,99,0.0,0.0,57,0.00,,SKC,0.00,VWS V14.01,2013-06-18 02:00:00,
2013-06-17 22:20:00,66.6,53.2,29.88,East,99,0.0,0.0,62,0.00,,SKC,0.00,VWS V14.01,2013-06-18 02:20:00,
2013-06-17 22:40:00,66.4,54.3,29.88,East,99,0.0,0.0,65,0.00,,SKC,0.00,VWS V14.01,2013-06-18 02:40:00,
2013-06-17 23:00:00,66.2,55.3,29.88,East,99,0.0,0.0,68,0.00,,SKC,0.00,VWS V14.01,2013-06-18 03:00:00,
2013-06-17 23:20:00,66.0,56.0,29.88,East,99,0.0,0.0,70,0.00,,SKC,0.00,VWS V14.01,2013-06-18 03:20:00,
2013-06-17 23:40:00,65.8,57.0,29.88,East,99,0.0,0.0,73,0.00,,SKC,0.00,VWS V14.01,2013-06-18 03:40:00,